sensor_id;sensor_type;location;lat;lon;timestamp;P1;durP1;ratioP1;P2;durP2;ratioP2
51566;SDS011;37657;53.182;5.638;2023-04-24T00:01:46;5.43;;;4.20;;
51566;SDS011;37657;53.182;5.638;2023-04-24T00:04:12;4.93;;;3.80;;
51566;SDS011;37657;53.182;5.638;2023-04-24T00:06:41;5.65;;;4.15;;
51566;SDS011;37657;53.182;5.638;2023-04-24T00:09:07;5.25;;;4.15;;
51566;SDS011;37657;53.182;5.638;2023-04-24T00:11:35;6.28;;;4.85;;
51566;SDS011;37657;53.182;5.638;2023-04-24T00:14:00;7.72;;;5.40;;
51566;SDS011;37657;53.182;5.638;2023-04-24T00:16:26;9.73;;;6.22;;
51566;SDS011;37657;53.182;5.638;2023-04-24T00:18:52;5.72;;;4.45;;
51566;SDS011;37657;53.182;5.638;2023-04-24T00:21:21;5.55;;;4.68;;
51566;SDS011;37657;53.182;5.638;2023-04-24T00:23:47;7.60;;;5.90;;
51566;SDS011;37657;53.182;5.638;2023-04-24T00:26:13;7.38;;;5.35;;
51566;SDS011;37657;53.182;5.638;2023-04-24T00:28:38;8.65;;;4.55;;
51566;SDS011;37657;53.182;5.638;2023-04-24T00:31:04;7.03;;;5.28;;
51566;SDS011;37657;53.182;5.638;2023-04-24T00:33:30;9.45;;;4.72;;
51566;SDS011;37657;53.182;5.638;2023-04-24T00:35:55;5.80;;;5.07;;
51566;SDS011;37657;53.182;5.638;2023-04-24T00:38:21;7.38;;;5.75;;
51566;SDS011;37657;53.182;5.638;2023-04-24T00:40:47;6.70;;;5.63;;
51566;SDS011;37657;53.182;5.638;2023-04-24T00:43:14;7.38;;;6.45;;
51566;SDS011;37657;53.182;5.638;2023-04-24T00:45:40;6.45;;;5.53;;
51566;SDS011;37657;53.182;5.638;2023-04-24T00:48:06;6.50;;;5.20;;
51566;SDS011;37657;53.182;5.638;2023-04-24T00:50:32;6.85;;;6.25;;
51566;SDS011;37657;53.182;5.638;2023-04-24T00:53:00;6.25;;;5.00;;
51566;SDS011;37657;53.182;5.638;2023-04-24T00:55:26;10.93;;;5.65;;
51566;SDS011;37657;53.182;5.638;2023-04-24T00:57:51;5.93;;;4.43;;
51566;SDS011;37657;53.182;5.638;2023-04-24T01:00:17;11.10;;;6.63;;
51566;SDS011;37657;53.182;5.638;2023-04-24T01:02:44;7.72;;;5.63;;
51566;SDS011;37657;53.182;5.638;2023-04-24T01:05:10;6.75;;;5.20;;
51566;SDS011;37657;53.182;5.638;2023-04-24T01:07:38;9.63;;;6.25;;
51566;SDS011;37657;53.182;5.638;2023-04-24T01:10:06;11.77;;;5.80;;
51566;SDS011;37657;53.182;5.638;2023-04-24T01:12:33;7.00;;;4.05;;
51566;SDS011;37657;53.182;5.638;2023-04-24T01:14:58;6.70;;;5.35;;
51566;SDS011;37657;53.182;5.638;2023-04-24T01:17:24;6.88;;;3.92;;
51566;SDS011;37657;53.182;5.638;2023-04-24T01:19:50;5.10;;;3.42;;
51566;SDS011;37657;53.182;5.638;2023-04-24T01:22:18;3.85;;;2.65;;
51566;SDS011;37657;53.182;5.638;2023-04-24T01:24:45;5.28;;;3.35;;
51566;SDS011;37657;53.182;5.638;2023-04-24T01:27:11;9.65;;;3.17;;
51566;SDS011;37657;53.182;5.638;2023-04-24T01:29:37;8.35;;;3.05;;
51566;SDS011;37657;53.182;5.638;2023-04-24T01:32:03;4.65;;;3.22;;
51566;SDS011;37657;53.182;5.638;2023-04-24T01:34:30;7.45;;;3.15;;
51566;SDS011;37657;53.182;5.638;2023-04-24T01:36:56;5.32;;;2.83;;
51566;SDS011;37657;53.182;5.638;2023-04-24T01:39:22;4.32;;;2.80;;
51566;SDS011;37657;53.182;5.638;2023-04-24T01:41:54;3.88;;;2.20;;
51566;SDS011;37657;53.182;5.638;2023-04-24T01:44:20;3.58;;;2.45;;
51566;SDS011;37657;53.182;5.638;2023-04-24T01:46:46;3.08;;;2.78;;
51566;SDS011;37657;53.182;5.638;2023-04-24T01:49:11;3.00;;;2.60;;
51566;SDS011;37657;53.182;5.638;2023-04-24T01:51:37;3.65;;;2.63;;
51566;SDS011;37657;53.182;5.638;2023-04-24T01:54:03;5.22;;;2.72;;
51566;SDS011;37657;53.182;5.638;2023-04-24T01:56:29;4.55;;;2.35;;
51566;SDS011;37657;53.182;5.638;2023-04-24T01:58:55;4.05;;;2.92;;
51566;SDS011;37657;53.182;5.638;2023-04-24T02:01:23;2.30;;;2.08;;
51566;SDS011;37657;53.182;5.638;2023-04-24T02:03:49;5.05;;;2.72;;
51566;SDS011;37657;53.182;5.638;2023-04-24T02:06:14;4.35;;;3.15;;
51566;SDS011;37657;53.182;5.638;2023-04-24T02:08:40;5.30;;;3.92;;
51566;SDS011;37657;53.182;5.638;2023-04-24T02:11:06;4.75;;;3.22;;
51566;SDS011;37657;53.182;5.638;2023-04-24T02:13:33;5.35;;;4.32;;
51566;SDS011;37657;53.182;5.638;2023-04-24T02:15:58;6.53;;;5.82;;
51566;SDS011;37657;53.182;5.638;2023-04-24T02:18:24;6.45;;;5.65;;
51566;SDS011;37657;53.182;5.638;2023-04-24T02:20:50;5.72;;;4.78;;
51566;SDS011;37657;53.182;5.638;2023-04-24T02:23:15;6.55;;;4.50;;
51566;SDS011;37657;53.182;5.638;2023-04-24T02:25:41;7.60;;;5.25;;
51566;SDS011;37657;53.182;5.638;2023-04-24T02:28:06;11.00;;;6.50;;
51566;SDS011;37657;53.182;5.638;2023-04-24T02:30:32;9.43;;;7.00;;
51566;SDS011;37657;53.182;5.638;2023-04-24T02:32:57;10.02;;;7.30;;
51566;SDS011;37657;53.182;5.638;2023-04-24T02:35:23;8.43;;;7.40;;
51566;SDS011;37657;53.182;5.638;2023-04-24T02:37:48;10.27;;;7.38;;
51566;SDS011;37657;53.182;5.638;2023-04-24T02:40:14;8.25;;;7.45;;
51566;SDS011;37657;53.182;5.638;2023-04-24T02:42:40;7.20;;;5.35;;
51566;SDS011;37657;53.182;5.638;2023-04-24T02:45:05;7.75;;;5.22;;
51566;SDS011;37657;53.182;5.638;2023-04-24T02:47:31;7.38;;;5.22;;
51566;SDS011;37657;53.182;5.638;2023-04-24T02:49:57;7.03;;;4.13;;
51566;SDS011;37657;53.182;5.638;2023-04-24T02:52:22;6.35;;;4.25;;
51566;SDS011;37657;53.182;5.638;2023-04-24T02:54:48;8.05;;;5.32;;
51566;SDS011;37657;53.182;5.638;2023-04-24T02:57:14;11.65;;;10.45;;
51566;SDS011;37657;53.182;5.638;2023-04-24T02:59:40;13.35;;;11.52;;
51566;SDS011;37657;53.182;5.638;2023-04-24T03:02:05;12.82;;;9.13;;
51566;SDS011;37657;53.182;5.638;2023-04-24T03:04:31;11.23;;;9.02;;
51566;SDS011;37657;53.182;5.638;2023-04-24T03:06:57;11.40;;;9.48;;
51566;SDS011;37657;53.182;5.638;2023-04-24T03:09:22;9.05;;;7.97;;
51566;SDS011;37657;53.182;5.638;2023-04-24T03:11:48;9.68;;;8.32;;
51566;SDS011;37657;53.182;5.638;2023-04-24T03:14:14;9.18;;;7.88;;
51566;SDS011;37657;53.182;5.638;2023-04-24T03:16:40;9.95;;;8.98;;
51566;SDS011;37657;53.182;5.638;2023-04-24T03:19:05;12.15;;;8.73;;
51566;SDS011;37657;53.182;5.638;2023-04-24T03:21:31;8.82;;;6.40;;
51566;SDS011;37657;53.182;5.638;2023-04-24T03:23:57;10.10;;;7.18;;
51566;SDS011;37657;53.182;5.638;2023-04-24T03:26:22;8.88;;;6.47;;
51566;SDS011;37657;53.182;5.638;2023-04-24T03:28:48;6.22;;;4.65;;
51566;SDS011;37657;53.182;5.638;2023-04-24T03:31:13;5.18;;;3.30;;
51566;SDS011;37657;53.182;5.638;2023-04-24T03:33:40;3.70;;;2.70;;
51566;SDS011;37657;53.182;5.638;2023-04-24T03:36:06;3.15;;;2.08;;
51566;SDS011;37657;53.182;5.638;2023-04-24T03:38:32;3.60;;;2.25;;
51566;SDS011;37657;53.182;5.638;2023-04-24T03:40:57;2.60;;;2.08;;
51566;SDS011;37657;53.182;5.638;2023-04-24T03:43:23;4.40;;;2.60;;
51566;SDS011;37657;53.182;5.638;2023-04-24T03:45:48;3.70;;;3.25;;
51566;SDS011;37657;53.182;5.638;2023-04-24T03:48:14;8.05;;;6.20;;
51566;SDS011;37657;53.182;5.638;2023-04-24T03:50:39;9.40;;;6.78;;
51566;SDS011;37657;53.182;5.638;2023-04-24T03:53:05;9.82;;;7.25;;
51566;SDS011;37657;53.182;5.638;2023-04-24T03:55:31;7.13;;;6.43;;
51566;SDS011;37657;53.182;5.638;2023-04-24T03:57:56;7.60;;;6.30;;
51566;SDS011;37657;53.182;5.638;2023-04-24T04:00:22;8.02;;;4.85;;
51566;SDS011;37657;53.182;5.638;2023-04-24T04:02:47;4.15;;;2.90;;
51566;SDS011;37657;53.182;5.638;2023-04-24T04:05:13;5.15;;;3.63;;
51566;SDS011;37657;53.182;5.638;2023-04-24T04:07:38;3.25;;;1.83;;
51566;SDS011;37657;53.182;5.638;2023-04-24T04:10:04;2.90;;;2.05;;
51566;SDS011;37657;53.182;5.638;2023-04-24T04:12:32;3.30;;;1.90;;
51566;SDS011;37657;53.182;5.638;2023-04-24T04:14:57;2.75;;;1.60;;
51566;SDS011;37657;53.182;5.638;2023-04-24T04:17:23;2.67;;;1.92;;
51566;SDS011;37657;53.182;5.638;2023-04-24T04:19:48;3.85;;;2.10;;
51566;SDS011;37657;53.182;5.638;2023-04-24T04:22:14;2.80;;;1.85;;
51566;SDS011;37657;53.182;5.638;2023-04-24T04:24:40;5.13;;;2.78;;
51566;SDS011;37657;53.182;5.638;2023-04-24T04:27:05;4.47;;;3.25;;
51566;SDS011;37657;53.182;5.638;2023-04-24T04:29:31;7.57;;;3.67;;
51566;SDS011;37657;53.182;5.638;2023-04-24T04:31:57;10.80;;;4.13;;
51566;SDS011;37657;53.182;5.638;2023-04-24T04:34:23;8.43;;;6.03;;
51566;SDS011;37657;53.182;5.638;2023-04-24T04:36:49;9.15;;;5.82;;
51566;SDS011;37657;53.182;5.638;2023-04-24T04:39:15;10.18;;;7.28;;
51566;SDS011;37657;53.182;5.638;2023-04-24T04:41:41;10.27;;;6.75;;
51566;SDS011;37657;53.182;5.638;2023-04-24T04:44:07;8.95;;;7.30;;
51566;SDS011;37657;53.182;5.638;2023-04-24T04:46:33;9.35;;;7.85;;
51566;SDS011;37657;53.182;5.638;2023-04-24T04:48:59;9.57;;;5.85;;
51566;SDS011;37657;53.182;5.638;2023-04-24T04:51:26;9.80;;;5.78;;
51566;SDS011;37657;53.182;5.638;2023-04-24T04:53:52;7.93;;;6.65;;
51566;SDS011;37657;53.182;5.638;2023-04-24T04:56:18;9.10;;;5.10;;
51566;SDS011;37657;53.182;5.638;2023-04-24T04:58:43;9.35;;;5.07;;
51566;SDS011;37657;53.182;5.638;2023-04-24T05:01:09;8.80;;;6.55;;
51566;SDS011;37657;53.182;5.638;2023-04-24T05:03:34;11.88;;;9.32;;
51566;SDS011;37657;53.182;5.638;2023-04-24T05:06:00;14.05;;;9.32;;
51566;SDS011;37657;53.182;5.638;2023-04-24T05:08:27;10.90;;;7.75;;
51566;SDS011;37657;53.182;5.638;2023-04-24T05:10:53;10.32;;;7.25;;
51566;SDS011;37657;53.182;5.638;2023-04-24T05:13:19;14.65;;;6.55;;
51566;SDS011;37657;53.182;5.638;2023-04-24T05:15:45;7.38;;;5.40;;
51566;SDS011;37657;53.182;5.638;2023-04-24T05:18:11;4.93;;;2.60;;
51566;SDS011;37657;53.182;5.638;2023-04-24T05:20:36;4.05;;;3.17;;
51566;SDS011;37657;53.182;5.638;2023-04-24T05:23:02;5.05;;;3.13;;
51566;SDS011;37657;53.182;5.638;2023-04-24T05:25:27;3.30;;;2.10;;
51566;SDS011;37657;53.182;5.638;2023-04-24T05:27:53;3.30;;;2.30;;
51566;SDS011;37657;53.182;5.638;2023-04-24T05:30:19;5.50;;;2.90;;
51566;SDS011;37657;53.182;5.638;2023-04-24T05:32:45;3.70;;;1.95;;
51566;SDS011;37657;53.182;5.638;2023-04-24T05:35:11;7.38;;;3.42;;
51566;SDS011;37657;53.182;5.638;2023-04-24T05:37:36;4.72;;;2.17;;
51566;SDS011;37657;53.182;5.638;2023-04-24T05:40:02;8.57;;;3.90;;
51566;SDS011;37657;53.182;5.638;2023-04-24T05:42:30;4.85;;;3.17;;
51566;SDS011;37657;53.182;5.638;2023-04-24T05:44:56;4.68;;;2.30;;
51566;SDS011;37657;53.182;5.638;2023-04-24T05:47:22;3.20;;;2.17;;
51566;SDS011;37657;53.182;5.638;2023-04-24T05:49:47;4.75;;;2.08;;
51566;SDS011;37657;53.182;5.638;2023-04-24T05:52:13;3.83;;;2.10;;
51566;SDS011;37657;53.182;5.638;2023-04-24T05:54:39;4.30;;;2.42;;
51566;SDS011;37657;53.182;5.638;2023-04-24T05:57:04;5.07;;;3.38;;
51566;SDS011;37657;53.182;5.638;2023-04-24T05:59:33;4.60;;;3.00;;
51566;SDS011;37657;53.182;5.638;2023-04-24T06:02:00;7.50;;;4.68;;
51566;SDS011;37657;53.182;5.638;2023-04-24T06:04:25;12.77;;;6.57;;
51566;SDS011;37657;53.182;5.638;2023-04-24T06:06:51;35.03;;;10.35;;
51566;SDS011;37657;53.182;5.638;2023-04-24T06:09:21;13.32;;;10.52;;
51566;SDS011;37657;53.182;5.638;2023-04-24T06:11:47;15.18;;;12.20;;
51566;SDS011;37657;53.182;5.638;2023-04-24T06:14:13;18.45;;;12.73;;
51566;SDS011;37657;53.182;5.638;2023-04-24T06:16:40;33.20;;;19.58;;
51566;SDS011;37657;53.182;5.638;2023-04-24T06:19:07;19.35;;;13.98;;
51566;SDS011;37657;53.182;5.638;2023-04-24T06:21:32;20.95;;;17.00;;
51566;SDS011;37657;53.182;5.638;2023-04-24T06:23:58;21.58;;;15.98;;
51566;SDS011;37657;53.182;5.638;2023-04-24T06:26:23;47.28;;;22.50;;
51566;SDS011;37657;53.182;5.638;2023-04-24T06:28:52;26.38;;;18.80;;
51566;SDS011;37657;53.182;5.638;2023-04-24T06:31:21;21.77;;;19.42;;
51566;SDS011;37657;53.182;5.638;2023-04-24T06:33:47;22.77;;;18.98;;
51566;SDS011;37657;53.182;5.638;2023-04-24T06:36:14;25.60;;;16.52;;
51566;SDS011;37657;53.182;5.638;2023-04-24T06:38:40;27.23;;;16.85;;
51566;SDS011;37657;53.182;5.638;2023-04-24T06:41:09;25.83;;;18.10;;
51566;SDS011;37657;53.182;5.638;2023-04-24T06:43:35;23.30;;;14.60;;
51566;SDS011;37657;53.182;5.638;2023-04-24T06:46:01;19.88;;;15.25;;
51566;SDS011;37657;53.182;5.638;2023-04-24T06:48:28;19.35;;;17.40;;
51566;SDS011;37657;53.182;5.638;2023-04-24T06:50:54;25.73;;;16.75;;
51566;SDS011;37657;53.182;5.638;2023-04-24T06:53:20;20.92;;;17.52;;
51566;SDS011;37657;53.182;5.638;2023-04-24T06:55:46;25.10;;;18.27;;
51566;SDS011;37657;53.182;5.638;2023-04-24T06:58:11;18.33;;;15.27;;
51566;SDS011;37657;53.182;5.638;2023-04-24T07:00:37;18.60;;;12.68;;
51566;SDS011;37657;53.182;5.638;2023-04-24T07:03:03;20.25;;;16.95;;
51566;SDS011;37657;53.182;5.638;2023-04-24T07:05:32;20.10;;;15.88;;
51566;SDS011;37657;53.182;5.638;2023-04-24T07:08:00;16.80;;;14.70;;
51566;SDS011;37657;53.182;5.638;2023-04-24T07:10:26;15.70;;;12.95;;
51566;SDS011;37657;53.182;5.638;2023-04-24T07:13:01;22.63;;;13.80;;
51566;SDS011;37657;53.182;5.638;2023-04-24T07:15:26;21.95;;;13.00;;
51566;SDS011;37657;53.182;5.638;2023-04-24T07:17:52;14.85;;;10.63;;
51566;SDS011;37657;53.182;5.638;2023-04-24T07:20:17;18.00;;;10.50;;
51566;SDS011;37657;53.182;5.638;2023-04-24T07:22:43;13.57;;;10.38;;
51566;SDS011;37657;53.182;5.638;2023-04-24T07:25:08;15.30;;;9.70;;
51566;SDS011;37657;53.182;5.638;2023-04-24T07:27:34;11.98;;;9.63;;
51566;SDS011;37657;53.182;5.638;2023-04-24T07:30:01;14.27;;;8.10;;
51566;SDS011;37657;53.182;5.638;2023-04-24T07:32:28;11.88;;;6.30;;
51566;SDS011;37657;53.182;5.638;2023-04-24T07:34:54;9.82;;;7.80;;
51566;SDS011;37657;53.182;5.638;2023-04-24T07:37:20;15.32;;;11.20;;
51566;SDS011;37657;53.182;5.638;2023-04-24T07:39:46;10.85;;;9.60;;
51566;SDS011;37657;53.182;5.638;2023-04-24T07:42:11;13.13;;;8.60;;
51566;SDS011;37657;53.182;5.638;2023-04-24T07:44:37;14.68;;;9.38;;
51566;SDS011;37657;53.182;5.638;2023-04-24T07:47:02;17.60;;;10.27;;
51566;SDS011;37657;53.182;5.638;2023-04-24T07:49:28;13.35;;;8.18;;
51566;SDS011;37657;53.182;5.638;2023-04-24T07:51:53;15.27;;;8.07;;
51566;SDS011;37657;53.182;5.638;2023-04-24T07:54:19;11.88;;;8.27;;
51566;SDS011;37657;53.182;5.638;2023-04-24T07:56:45;12.98;;;7.82;;
51566;SDS011;37657;53.182;5.638;2023-04-24T07:59:10;11.00;;;8.57;;
51566;SDS011;37657;53.182;5.638;2023-04-24T08:01:39;12.10;;;7.80;;
51566;SDS011;37657;53.182;5.638;2023-04-24T08:04:05;15.95;;;8.10;;
51566;SDS011;37657;53.182;5.638;2023-04-24T08:06:30;13.32;;;8.05;;
51566;SDS011;37657;53.182;5.638;2023-04-24T08:08:56;10.13;;;8.80;;
51566;SDS011;37657;53.182;5.638;2023-04-24T08:11:23;11.75;;;9.45;;
51566;SDS011;37657;53.182;5.638;2023-04-24T08:13:49;10.32;;;7.90;;
51566;SDS011;37657;53.182;5.638;2023-04-24T08:16:15;12.07;;;7.38;;
51566;SDS011;37657;53.182;5.638;2023-04-24T08:18:40;7.82;;;6.05;;
51566;SDS011;37657;53.182;5.638;2023-04-24T08:21:06;8.43;;;7.20;;
51566;SDS011;37657;53.182;5.638;2023-04-24T08:23:31;8.18;;;6.65;;
51566;SDS011;37657;53.182;5.638;2023-04-24T08:25:57;10.88;;;5.82;;
51566;SDS011;37657;53.182;5.638;2023-04-24T08:28:22;8.43;;;6.45;;
51566;SDS011;37657;53.182;5.638;2023-04-24T08:30:48;8.15;;;5.35;;
51566;SDS011;37657;53.182;5.638;2023-04-24T08:33:19;19.48;;;7.90;;
51566;SDS011;37657;53.182;5.638;2023-04-24T08:35:48;8.13;;;5.47;;
51566;SDS011;37657;53.182;5.638;2023-04-24T08:38:13;12.23;;;7.38;;
51566;SDS011;37657;53.182;5.638;2023-04-24T08:40:39;9.45;;;5.75;;
51566;SDS011;37657;53.182;5.638;2023-04-24T08:43:05;11.35;;;5.35;;
51566;SDS011;37657;53.182;5.638;2023-04-24T08:45:32;11.85;;;6.50;;
51566;SDS011;37657;53.182;5.638;2023-04-24T08:47:58;7.90;;;4.80;;
51566;SDS011;37657;53.182;5.638;2023-04-24T08:50:24;12.15;;;5.78;;
51566;SDS011;37657;53.182;5.638;2023-04-24T08:52:50;16.40;;;8.45;;
51566;SDS011;37657;53.182;5.638;2023-04-24T08:55:19;8.30;;;5.53;;
51566;SDS011;37657;53.182;5.638;2023-04-24T08:57:46;11.90;;;5.53;;
51566;SDS011;37657;53.182;5.638;2023-04-24T09:00:16;11.50;;;7.05;;
51566;SDS011;37657;53.182;5.638;2023-04-24T09:02:43;11.05;;;7.00;;
51566;SDS011;37657;53.182;5.638;2023-04-24T09:05:09;16.98;;;5.00;;
51566;SDS011;37657;53.182;5.638;2023-04-24T09:07:35;13.55;;;4.90;;
51566;SDS011;37657;53.182;5.638;2023-04-24T09:10:04;9.05;;;4.70;;
51566;SDS011;37657;53.182;5.638;2023-04-24T09:12:30;7.85;;;4.45;;
51566;SDS011;37657;53.182;5.638;2023-04-24T09:14:56;11.60;;;4.55;;
51566;SDS011;37657;53.182;5.638;2023-04-24T09:17:23;12.02;;;5.53;;
51566;SDS011;37657;53.182;5.638;2023-04-24T09:19:51;10.68;;;4.78;;
51566;SDS011;37657;53.182;5.638;2023-04-24T09:22:17;7.65;;;3.42;;
51566;SDS011;37657;53.182;5.638;2023-04-24T09:24:43;9.02;;;5.18;;
51566;SDS011;37657;53.182;5.638;2023-04-24T09:27:10;7.30;;;4.82;;
51566;SDS011;37657;53.182;5.638;2023-04-24T09:29:37;7.72;;;5.15;;
51566;SDS011;37657;53.182;5.638;2023-04-24T09:32:22;12.63;;;5.05;;
51566;SDS011;37657;53.182;5.638;2023-04-24T09:35:04;8.48;;;3.78;;
51566;SDS011;37657;53.182;5.638;2023-04-24T09:37:43;9.27;;;5.43;;
51566;SDS011;37657;53.182;5.638;2023-04-24T09:42:37;13.00;;;5.95;;
51566;SDS011;37657;53.182;5.638;2023-04-24T09:45:03;15.15;;;4.47;;
51566;SDS011;37657;53.182;5.638;2023-04-24T09:47:35;7.22;;;4.05;;
51566;SDS011;37657;53.182;5.638;2023-04-24T09:50:08;6.78;;;3.35;;
51566;SDS011;37657;53.182;5.638;2023-04-24T09:52:45;8.13;;;3.70;;
51566;SDS011;37657;53.182;5.638;2023-04-24T09:55:13;8.68;;;4.10;;
51566;SDS011;37657;53.182;5.638;2023-04-24T09:57:48;7.80;;;4.47;;
51566;SDS011;37657;53.182;5.638;2023-04-24T10:00:22;8.70;;;3.00;;
51566;SDS011;37657;53.182;5.638;2023-04-24T10:02:55;10.77;;;3.42;;
51566;SDS011;37657;53.182;5.638;2023-04-24T10:05:29;4.70;;;3.38;;
51566;SDS011;37657;53.182;5.638;2023-04-24T10:10:29;9.48;;;3.40;;
51566;SDS011;37657;53.182;5.638;2023-04-24T10:12:56;9.65;;;3.50;;
51566;SDS011;37657;53.182;5.638;2023-04-24T10:15:22;8.77;;;4.13;;
51566;SDS011;37657;53.182;5.638;2023-04-24T10:17:48;11.23;;;4.05;;
51566;SDS011;37657;53.182;5.638;2023-04-24T10:20:22;9.57;;;3.60;;
51566;SDS011;37657;53.182;5.638;2023-04-24T10:22:50;11.27;;;3.80;;
51566;SDS011;37657;53.182;5.638;2023-04-24T10:25:20;10.18;;;4.40;;
51566;SDS011;37657;53.182;5.638;2023-04-24T10:27:51;9.63;;;3.47;;
51566;SDS011;37657;53.182;5.638;2023-04-24T10:30:18;15.85;;;3.35;;
51566;SDS011;37657;53.182;5.638;2023-04-24T10:32:44;8.45;;;3.85;;
51566;SDS011;37657;53.182;5.638;2023-04-24T10:35:14;5.10;;;3.05;;
51566;SDS011;37657;53.182;5.638;2023-04-24T10:37:43;10.82;;;4.20;;
51566;SDS011;37657;53.182;5.638;2023-04-24T10:40:11;4.45;;;2.92;;
51566;SDS011;37657;53.182;5.638;2023-04-24T10:42:42;6.82;;;3.42;;
51566;SDS011;37657;53.182;5.638;2023-04-24T10:45:18;6.65;;;3.72;;
51566;SDS011;37657;53.182;5.638;2023-04-24T10:48:03;9.50;;;3.60;;
51566;SDS011;37657;53.182;5.638;2023-04-24T10:53:19;7.65;;;3.03;;
51566;SDS011;37657;53.182;5.638;2023-04-24T10:56:02;7.32;;;3.25;;
51566;SDS011;37657;53.182;5.638;2023-04-24T10:58:36;5.80;;;3.15;;
51566;SDS011;37657;53.182;5.638;2023-04-24T11:01:08;11.05;;;3.08;;
51566;SDS011;37657;53.182;5.638;2023-04-24T11:03:34;4.82;;;2.83;;
51566;SDS011;37657;53.182;5.638;2023-04-24T11:06:05;6.40;;;3.05;;
51566;SDS011;37657;53.182;5.638;2023-04-24T11:08:36;7.47;;;3.50;;
51566;SDS011;37657;53.182;5.638;2023-04-24T11:11:10;8.15;;;3.58;;
51566;SDS011;37657;53.182;5.638;2023-04-24T11:16:34;3.10;;;2.08;;
51566;SDS011;37657;53.182;5.638;2023-04-24T11:19:04;7.18;;;2.30;;
51566;SDS011;37657;53.182;5.638;2023-04-24T11:26:55;11.63;;;2.38;;
51566;SDS011;37657;53.182;5.638;2023-04-24T11:29:21;11.13;;;3.08;;
51566;SDS011;37657;53.182;5.638;2023-04-24T11:31:47;10.07;;;2.75;;
51566;SDS011;37657;53.182;5.638;2023-04-24T11:34:16;7.43;;;2.50;;
51566;SDS011;37657;53.182;5.638;2023-04-24T11:36:43;4.22;;;2.67;;
51566;SDS011;37657;53.182;5.638;2023-04-24T11:39:09;7.75;;;2.55;;
51566;SDS011;37657;53.182;5.638;2023-04-24T11:41:36;4.57;;;2.08;;
51566;SDS011;37657;53.182;5.638;2023-04-24T11:44:03;5.85;;;2.38;;
51566;SDS011;37657;53.182;5.638;2023-04-24T11:46:31;10.48;;;2.78;;
51566;SDS011;37657;53.182;5.638;2023-04-24T11:48:57;4.25;;;1.92;;
51566;SDS011;37657;53.182;5.638;2023-04-24T11:51:24;4.72;;;1.52;;
51566;SDS011;37657;53.182;5.638;2023-04-24T11:53:51;5.07;;;1.60;;
51566;SDS011;37657;53.182;5.638;2023-04-24T11:56:18;3.65;;;1.30;;
51566;SDS011;37657;53.182;5.638;2023-04-24T11:58:44;6.32;;;2.30;;
51566;SDS011;37657;53.182;5.638;2023-04-24T12:01:10;3.20;;;2.10;;
51566;SDS011;37657;53.182;5.638;2023-04-24T12:03:36;3.95;;;1.90;;
51566;SDS011;37657;53.182;5.638;2023-04-24T12:06:05;3.35;;;1.70;;
51566;SDS011;37657;53.182;5.638;2023-04-24T12:08:32;10.50;;;2.83;;
51566;SDS011;37657;53.182;5.638;2023-04-24T12:11:02;5.60;;;1.63;;
51566;SDS011;37657;53.182;5.638;2023-04-24T12:13:30;3.45;;;2.03;;
51566;SDS011;37657;53.182;5.638;2023-04-24T12:15:59;6.30;;;2.17;;
51566;SDS011;37657;53.182;5.638;2023-04-24T12:18:27;11.05;;;4.15;;
51566;SDS011;37657;53.182;5.638;2023-04-24T12:20:53;10.57;;;4.13;;
51566;SDS011;37657;53.182;5.638;2023-04-24T12:23:34;7.60;;;2.00;;
51566;SDS011;37657;53.182;5.638;2023-04-24T12:26:03;3.60;;;2.10;;
51566;SDS011;37657;53.182;5.638;2023-04-24T12:28:36;3.67;;;1.65;;
51566;SDS011;37657;53.182;5.638;2023-04-24T12:31:03;2.72;;;1.48;;
51566;SDS011;37657;53.182;5.638;2023-04-24T12:33:32;4.50;;;2.72;;
51566;SDS011;37657;53.182;5.638;2023-04-24T12:35:58;4.43;;;1.77;;
51566;SDS011;37657;53.182;5.638;2023-04-24T12:38:25;1.65;;;1.27;;
51566;SDS011;37657;53.182;5.638;2023-04-24T12:41:08;3.25;;;1.95;;
51566;SDS011;37657;53.182;5.638;2023-04-24T12:43:36;5.60;;;2.50;;
51566;SDS011;37657;53.182;5.638;2023-04-24T12:46:02;5.15;;;2.10;;
51566;SDS011;37657;53.182;5.638;2023-04-24T12:48:29;3.83;;;2.30;;
51566;SDS011;37657;53.182;5.638;2023-04-24T12:50:59;10.63;;;2.78;;
51566;SDS011;37657;53.182;5.638;2023-04-24T12:53:28;4.63;;;2.60;;
51566;SDS011;37657;53.182;5.638;2023-04-24T12:55:55;7.57;;;3.17;;
51566;SDS011;37657;53.182;5.638;2023-04-24T12:58:21;9.82;;;3.78;;
51566;SDS011;37657;53.182;5.638;2023-04-24T13:00:47;9.90;;;3.95;;
51566;SDS011;37657;53.182;5.638;2023-04-24T13:03:13;9.82;;;4.45;;
51566;SDS011;37657;53.182;5.638;2023-04-24T13:05:38;9.90;;;3.00;;
51566;SDS011;37657;53.182;5.638;2023-04-24T13:08:05;10.32;;;4.55;;
51566;SDS011;37657;53.182;5.638;2023-04-24T13:10:30;11.50;;;4.78;;
51566;SDS011;37657;53.182;5.638;2023-04-24T13:12:56;9.10;;;4.50;;
51566;SDS011;37657;53.182;5.638;2023-04-24T13:15:22;8.13;;;3.60;;
51566;SDS011;37657;53.182;5.638;2023-04-24T13:17:47;8.05;;;3.50;;
51566;SDS011;37657;53.182;5.638;2023-04-24T13:20:13;7.50;;;3.33;;
51566;SDS011;37657;53.182;5.638;2023-04-24T13:22:38;4.63;;;2.60;;
51566;SDS011;37657;53.182;5.638;2023-04-24T13:25:04;10.60;;;3.75;;
51566;SDS011;37657;53.182;5.638;2023-04-24T13:27:31;4.63;;;2.75;;
51566;SDS011;37657;53.182;5.638;2023-04-24T13:29:56;9.27;;;4.13;;
51566;SDS011;37657;53.182;5.638;2023-04-24T13:32:22;7.18;;;3.22;;
51566;SDS011;37657;53.182;5.638;2023-04-24T13:34:47;6.75;;;3.15;;
51566;SDS011;37657;53.182;5.638;2023-04-24T13:37:13;9.88;;;3.33;;
51566;SDS011;37657;53.182;5.638;2023-04-24T13:39:38;5.03;;;2.72;;
51566;SDS011;37657;53.182;5.638;2023-04-24T13:42:06;12.50;;;4.22;;
51566;SDS011;37657;53.182;5.638;2023-04-24T13:44:31;10.57;;;5.32;;
51566;SDS011;37657;53.182;5.638;2023-04-24T13:46:57;6.65;;;4.25;;
51566;SDS011;37657;53.182;5.638;2023-04-24T13:49:23;18.55;;;5.88;;
51566;SDS011;37657;53.182;5.638;2023-04-24T13:51:50;20.52;;;4.80;;
51566;SDS011;37657;53.182;5.638;2023-04-24T13:54:16;8.57;;;6.10;;
51566;SDS011;37657;53.182;5.638;2023-04-24T13:56:41;10.15;;;3.95;;
51566;SDS011;37657;53.182;5.638;2023-04-24T13:59:07;12.75;;;6.20;;
51566;SDS011;37657;53.182;5.638;2023-04-24T14:01:33;8.75;;;4.45;;
51566;SDS011;37657;53.182;5.638;2023-04-24T14:03:59;11.23;;;4.18;;
51566;SDS011;37657;53.182;5.638;2023-04-24T14:06:25;13.40;;;4.97;;
51566;SDS011;37657;53.182;5.638;2023-04-24T14:08:51;38.75;;;6.13;;
51566;SDS011;37657;53.182;5.638;2023-04-24T14:11:17;10.32;;;4.40;;
51566;SDS011;37657;53.182;5.638;2023-04-24T14:13:43;11.18;;;5.43;;
51566;SDS011;37657;53.182;5.638;2023-04-24T14:16:09;8.88;;;4.03;;
51566;SDS011;37657;53.182;5.638;2023-04-24T14:18:36;12.18;;;4.57;;
51566;SDS011;37657;53.182;5.638;2023-04-24T14:21:02;12.07;;;5.75;;
51566;SDS011;37657;53.182;5.638;2023-04-24T14:23:28;12.57;;;5.43;;
51566;SDS011;37657;53.182;5.638;2023-04-24T14:25:54;6.30;;;3.65;;
51566;SDS011;37657;53.182;5.638;2023-04-24T14:28:20;7.45;;;4.03;;
51566;SDS011;37657;53.182;5.638;2023-04-24T14:30:46;15.90;;;6.10;;
51566;SDS011;37657;53.182;5.638;2023-04-24T14:33:13;8.70;;;4.95;;
51566;SDS011;37657;53.182;5.638;2023-04-24T14:35:42;10.40;;;4.75;;
51566;SDS011;37657;53.182;5.638;2023-04-24T14:38:08;15.95;;;5.38;;
51566;SDS011;37657;53.182;5.638;2023-04-24T14:40:35;9.00;;;4.60;;
51566;SDS011;37657;53.182;5.638;2023-04-24T14:43:01;13.35;;;5.20;;
51566;SDS011;37657;53.182;5.638;2023-04-24T14:45:27;10.50;;;4.88;;
51566;SDS011;37657;53.182;5.638;2023-04-24T14:47:53;6.95;;;4.40;;
51566;SDS011;37657;53.182;5.638;2023-04-24T14:50:19;8.45;;;4.65;;
51566;SDS011;37657;53.182;5.638;2023-04-24T14:52:45;11.48;;;4.82;;
51566;SDS011;37657;53.182;5.638;2023-04-24T14:55:11;14.60;;;4.95;;